Time;durP1;ratioP1;P1;durP2;ratioP2;P2;SDS_P1;SDS_P2;PMS_P1;PMS_P2;Temp;Humidity;BMP_temperature;BMP_pressure;BME280_temperature;BME280_humidity;BME280_pressure;Samples;Min_cycle;Max_cycle;Signal;HPM_P1;HPM_P2
2022/09/18 00:02:16;;;;;;;2.87;1.97;;;12.00;99.90;;;;;;5094713;28;20485;-69
2022/09/18 00:04:43;;;;;;;3.60;2.50;;;12.10;99.90;;;;;;5095041;28;20953;-69
2022/09/18 00:07:10;;;;;;;4.43;2.40;;;12.00;99.90;;;;;;5095470;28;20463;-69
2022/09/18 00:09:39;;;;;;;3.13;1.97;;;12.00;99.90;;;;;;5099484;28;20832;-69
2022/09/18 00:12:06;;;;;;;2.43;2.00;;;11.90;99.90;;;;;;5099203;28;20517;-70
2022/09/18 00:14:33;;;;;;;2.50;2.30;;;11.80;99.90;;;;;;5099176;28;20463;-69
2022/09/18 00:17:01;;;;;;;2.40;2.20;;;11.70;99.90;;;;;;5099136;28;20464;-68
2022/09/18 00:19:29;;;;;;;2.50;2.13;;;11.60;99.90;;;;;;5100071;28;20478;-70
2022/09/18 00:21:56;;;;;;;3.60;2.27;;;11.60;99.90;;;;;;5099694;28;20464;-69
2022/09/18 00:24:23;;;;;;;4.80;2.53;;;11.50;99.90;;;;;;5101310;28;20463;-69
2022/09/18 00:43:41;;;;;;;2.03;1.83;;;11.50;99.90;;;;;;5098709;28;20725;-70
2022/09/18 00:46:36;;;;;;;3.97;2.30;;;11.50;99.90;;;;;;5098730;28;20536;-70
2022/09/18 00:49:10;;;;;;;4.50;2.27;;;11.50;99.90;;;;;;5098586;28;20847;-70
2022/09/18 00:52:23;;;;;;;3.13;2.27;;;11.50;99.90;;;;;;5098270;28;20483;-70
2022/09/18 00:54:55;;;;;;;2.30;2.00;;;11.50;99.90;;;;;;5098642;28;20539;-70
2022/09/18 00:57:25;;;;;;;4.43;1.70;;;11.50;99.90;;;;;;5100319;28;20512;-70
2022/09/18 00:59:55;;;;;;;2.50;1.40;;;11.50;99.90;;;;;;5099521;28;20532;-70
2022/09/18 01:02:22;;;;;;;1.50;1.40;;;11.50;99.90;;;;;;5099475;28;20854;-70
2022/09/18 01:04:50;;;;;;;1.50;1.23;;;11.50;99.90;;;;;;5098494;28;20492;-71
2022/09/18 01:07:28;;;;;;;2.10;1.40;;;11.40;99.90;;;;;;5098356;28;20510;-71
2022/09/18 01:10:02;;;;;;;1.40;1.20;;;11.40;99.90;;;;;;5097923;28;20456;-71
2022/09/18 01:12:34;;;;;;;2.50;1.40;;;11.40;99.90;;;;;;5098199;28;20437;-71
2022/09/18 01:15:10;;;;;;;4.63;1.60;;;11.40;99.90;;;;;;5097742;28;20833;-72
2022/09/18 01:17:44;;;;;;;2.17;1.10;;;11.40;99.90;;;;;;5097342;28;20449;-71
2022/09/18 01:20:33;;;;;;;2.53;1.10;;;11.40;99.90;;;;;;5097128;28;20440;-72
2022/09/18 01:23:14;;;;;;;1.40;0.90;;;11.40;99.90;;;;;;5097396;28;20449;-72
2022/09/18 01:25:56;;;;;;;1.83;0.80;;;11.30;99.90;;;;;;5097520;28;20528;-71
2022/09/18 01:28:30;;;;;;;4.03;1.00;;;11.40;99.90;;;;;;5097528;28;20476;-71
2022/09/18 01:31:02;;;;;;;2.00;1.13;;;11.40;99.90;;;;;;5098965;28;20452;-71
2022/09/18 01:33:32;;;;;;;6.73;4.13;;;11.40;99.90;;;;;;5100212;28;20442;-73
2022/09/18 01:36:01;;;;;;;2.10;1.40;;;11.40;99.90;;;;;;5099853;28;20471;-72
2022/09/18 01:38:33;;;;;;;1.83;0.90;;;11.40;99.90;;;;;;5097205;28;20454;-72
2022/09/18 01:41:05;;;;;;;1.50;0.90;;;11.30;99.90;;;;;;5097548;28;20507;-71
2022/09/18 01:43:36;;;;;;;2.23;0.90;;;11.30;99.90;;;;;;5097253;28;20480;-72
2022/09/18 01:46:08;;;;;;;1.23;0.87;;;11.20;99.90;;;;;;5097590;28;20451;-72
2022/09/18 01:48:38;;;;;;;1.87;0.90;;;11.20;99.90;;;;;;5096982;28;20466;-72
2022/09/18 01:51:09;;;;;;;1.40;0.80;;;11.30;99.90;;;;;;5097180;28;20532;-72
2022/09/18 01:53:40;;;;;;;1.90;0.77;;;11.20;99.90;;;;;;5096722;28;20477;-72
2022/09/18 01:56:11;;;;;;;1.60;1.10;;;11.30;99.90;;;;;;5096866;28;20446;-73
2022/09/18 01:58:40;;;;;;;1.57;0.80;;;11.30;99.90;;;;;;5097327;28;20460;-72
2022/09/18 02:01:12;;;;;;;2.40;0.80;;;11.30;99.90;;;;;;5096603;28;20942;-73
2022/09/18 02:03:44;;;;;;;1.10;0.60;;;11.30;99.90;;;;;;5096502;28;20583;-72
2022/09/18 02:06:15;;;;;;;1.37;0.90;;;11.30;99.90;;;;;;5096856;28;20908;-72
2022/09/18 02:08:46;;;;;;;1.47;0.70;;;11.30;99.90;;;;;;5096890;28;20461;-73
2022/09/18 02:11:15;;;;;;;1.30;0.87;;;11.30;99.90;;;;;;5096727;28;20457;-72
2022/09/18 02:13:48;;;;;;;1.67;0.90;;;11.30;99.90;;;;;;5097067;28;20457;-73
2022/09/18 02:16:20;;;;;;;1.17;0.83;;;11.30;99.90;;;;;;5096784;28;20456;-73
2022/09/18 02:18:51;;;;;;;1.30;0.80;;;11.30;99.90;;;;;;5097090;28;20437;-73
2022/09/18 02:21:24;;;;;;;1.97;0.87;;;11.40;99.90;;;;;;5096440;28;20441;-73
2022/09/18 02:23:53;;;;;;;1.13;0.90;;;11.40;99.90;;;;;;5096071;28;20453;-73
2022/09/18 02:26:20;;;;;;;1.40;0.90;;;11.40;99.90;;;;;;5096173;28;20552;-73
2022/09/18 02:28:50;;;;;;;1.60;0.90;;;11.40;99.90;;;;;;5096241;28;20491;-73
2022/09/18 02:31:18;;;;;;;1.20;0.90;;;11.40;99.90;;;;;;5095435;28;20544;-73
2022/09/18 02:33:45;;;;;;;1.67;0.83;;;11.40;99.90;;;;;;5096456;28;20808;-73
2022/09/18 02:36:35;;;;;;;1.50;0.83;;;11.30;99.90;;;;;;5096152;28;20540;-72
2022/09/18 02:39:10;;;;;;;1.67;0.97;;;11.30;99.90;;;;;;5097700;28;20445;-73
2022/09/18 02:41:47;;;;;;;2.33;1.30;;;11.30;99.90;;;;;;5096316;28;20838;-73
2022/09/18 02:44:19;;;;;;;3.77;1.40;;;11.30;99.90;;;;;;5095621;28;20957;-73
2022/09/18 02:47:01;;;;;;;3.10;1.30;;;11.30;99.90;;;;;;5095770;28;20459;-73
2022/09/18 02:49:36;;;;;;;1.53;1.07;;;11.30;99.90;;;;;;5095333;28;20519;-72
2022/09/18 02:52:07;;;;;;;5.40;1.80;;;11.20;99.90;;;;;;5095499;28;20942;-72
2022/09/18 02:54:41;;;;;;;3.50;1.60;;;11.20;99.90;;;;;;5095692;28;20524;-72
2022/09/18 02:57:13;;;;;;;8.80;1.60;;;11.20;99.90;;;;;;5095560;28;20437;-73
2022/09/18 02:59:46;;;;;;;4.63;1.80;;;11.20;99.90;;;;;;5095441;28;20881;-71
2022/09/18 03:02:13;;;;;;;2.90;1.77;;;11.20;99.90;;;;;;5095449;28;20485;-71
2022/09/18 03:04:39;;;;;;;8.10;2.10;;;11.20;99.90;;;;;;5095387;28;20452;-71
2022/09/18 03:07:06;;;;;;;4.60;1.80;;;11.20;99.90;;;;;;5095093;28;20463;-72
2022/09/18 03:09:33;;;;;;;5.43;2.30;;;11.10;99.90;;;;;;5096306;28;20867;-72
2022/09/18 03:12:02;;;;;;;4.00;2.23;;;11.10;99.90;;;;;;5095484;28;20582;-72
2022/09/18 03:14:28;;;;;;;7.03;2.10;;;11.10;99.90;;;;;;5095976;28;20501;-72
2022/09/18 03:16:57;;;;;;;6.07;2.10;;;11.10;99.90;;;;;;5095774;28;20465;-71
2022/09/18 03:19:23;;;;;;;9.57;2.10;;;11.10;99.90;;;;;;5095179;28;20766;-71
2022/09/18 03:21:51;;;;;;;7.83;2.40;;;11.10;99.90;;;;;;5095176;28;20918;-71
2022/09/18 03:24:18;;;;;;;10.03;2.60;;;11.10;99.90;;;;;;5095747;28;20793;-72
2022/09/18 03:26:45;;;;;;;10.53;2.97;;;11.10;99.90;;;;;;5095978;28;20848;-73
2022/09/18 03:29:14;;;;;;;10.80;3.00;;;11.10;99.90;;;;;;5096068;28;20635;-73
2022/09/18 03:31:41;;;;;;;7.67;2.20;;;11.10;99.90;;;;;;5095596;28;20548;-73
2022/09/18 03:34:09;;;;;;;9.37;2.23;;;11.10;99.90;;;;;;5096861;28;20461;-73
2022/09/18 03:36:36;;;;;;;4.30;1.90;;;11.10;99.90;;;;;;5096017;28;20453;-72
2022/09/18 03:39:04;;;;;;;8.50;1.90;;;11.10;99.90;;;;;;5096621;28;20803;-73
2022/09/18 03:41:31;;;;;;;6.57;2.37;;;11.10;99.90;;;;;;5096121;28;20476;-72
2022/09/18 03:43:58;;;;;;;9.07;2.57;;;11.10;99.90;;;;;;5096083;28;20774;-72
2022/09/18 03:46:25;;;;;;;10.97;4.30;;;11.10;99.90;;;;;;5095763;28;20453;-72
2022/09/18 03:48:53;;;;;;;6.27;2.20;;;11.10;99.90;;;;;;5096046;28;20488;-72
2022/09/18 03:51:21;;;;;;;11.93;3.40;;;11.10;99.90;;;;;;5095635;28;20453;-71
2022/09/18 03:53:49;;;;;;;14.00;2.73;;;11.10;99.90;;;;;;5096462;28;20949;-72
2022/09/18 03:56:17;;;;;;;13.03;2.80;;;11.10;99.90;;;;;;5096448;28;20453;-72
2022/09/18 03:58:44;;;;;;;11.17;3.43;;;11.10;99.90;;;;;;5110291;28;20515;-71
2022/09/18 04:01:12;;;;;;;15.10;2.50;;;11.10;99.90;;;;;;5118696;28;20467;-71
2022/09/18 04:03:39;;;;;;;13.50;2.90;;;11.10;99.90;;;;;;5116979;28;20492;-72
2022/09/18 04:06:07;;;;;;;8.53;2.90;;;11.00;99.90;;;;;;5117728;28;20531;-72
2022/09/18 04:08:36;;;;;;;9.77;3.47;;;11.00;99.90;;;;;;5115764;28;20472;-72
2022/09/18 04:11:04;;;;;;;12.90;3.23;;;10.90;99.90;;;;;;5115207;28;20452;-71
2022/09/18 04:13:31;;;;;;;11.60;3.40;;;10.90;99.90;;;;;;5115431;28;20453;-71
2022/09/18 04:15:58;;;;;;;7.57;2.90;;;10.90;99.90;;;;;;5115411;28;20457;-71
2022/09/18 04:18:25;;;;;;;19.23;3.53;;;10.80;99.90;;;;;;5115163;28;20472;-71
2022/09/18 04:20:52;;;;;;;6.53;3.10;;;10.80;99.90;;;;;;5115127;28;20771;-72
2022/09/18 04:23:19;;;;;;;7.33;3.03;;;10.80;99.90;;;;;;5114329;28;20940;-71
2022/09/18 04:25:48;;;;;;;11.87;4.07;;;10.80;99.90;;;;;;5115180;28;20861;-71
2022/09/18 04:28:14;;;;;;;7.60;3.23;;;10.70;99.90;;;;;;5114951;28;20883;-72
2022/09/18 04:30:41;;;;;;;10.70;3.67;;;10.80;99.90;;;;;;5114678;28;20563;-72
2022/09/18 04:33:08;;;;;;;10.50;3.27;;;10.80;99.90;;;;;;5115022;28;20506;-71
2022/09/18 04:35:35;;;;;;;16.73;4.30;;;10.80;99.90;;;;;;5114990;28;20452;-71
2022/09/18 04:38:02;;;;;;;10.30;3.90;;;10.80;99.90;;;;;;5106796;28;20544;-71
2022/09/18 04:40:29;;;;;;;10.67;3.30;;;10.80;99.90;;;;;;5093932;28;22104;-71
2022/09/18 04:42:57;;;;;;;8.93;3.10;;;10.80;99.90;;;;;;5114772;28;20452;-71
2022/09/18 04:45:24;;;;;;;6.90;3.30;;;10.80;99.90;;;;;;5114270;28;20933;-72
2022/09/18 04:47:51;;;;;;;5.63;3.10;;;10.80;99.90;;;;;;5114375;28;20452;-72
2022/09/18 04:50:17;;;;;;;8.10;3.03;;;10.70;99.90;;;;;;5114198;28;20574;-72
2022/09/18 04:52:44;;;;;;;13.77;3.30;;;10.70;99.90;;;;;;5115110;28;20861;-72
2022/09/18 04:55:11;;;;;;;8.83;3.40;;;10.60;99.90;;;;;;5117979;28;20467;-73
2022/09/18 04:57:38;;;;;;;8.63;3.10;;;10.60;99.90;;;;;;5118088;28;20543;-72
2022/09/18 05:00:09;;;;;;;8.30;3.13;;;10.60;99.90;;;;;;5117859;28;20908;-72
2022/09/18 05:02:37;;;;;;;7.13;3.03;;;10.60;99.90;;;;;;5118272;28;20487;-72
2022/09/18 05:05:04;;;;;;;4.40;3.33;;;10.60;99.90;;;;;;5120066;28;20452;-72
2022/09/18 05:07:32;;;;;;;5.83;3.17;;;10.70;99.90;;;;;;5118739;28;20535;-72
2022/09/18 05:09:59;;;;;;;7.37;3.07;;;10.70;99.90;;;;;;5118220;28;20483;-73
2022/09/18 05:12:26;;;;;;;15.43;3.00;;;10.70;99.90;;;;;;5118168;28;20509;-73
2022/09/18 05:14:52;;;;;;;8.57;2.83;;;10.70;99.90;;;;;;5118050;28;20881;-75
2022/09/18 05:17:20;;;;;;;6.27;2.73;;;10.60;99.90;;;;;;5117965;28;20488;-72
2022/09/18 05:19:47;;;;;;;7.63;2.70;;;10.60;99.90;;;;;;5118166;28;20479;-72
2022/09/18 05:22:14;;;;;;;8.10;2.93;;;10.60;99.90;;;;;;5118010;28;20544;-72
2022/09/18 05:24:41;;;;;;;9.93;3.13;;;10.60;99.90;;;;;;5118024;28;20452;-72
2022/09/18 05:27:08;;;;;;;11.07;3.00;;;10.50;99.90;;;;;;5118013;28;20460;-73
2022/09/18 05:29:36;;;;;;;9.53;2.60;;;10.50;99.90;;;;;;5117922;28;20483;-72
2022/09/18 05:32:03;;;;;;;3.87;1.80;;;10.50;99.90;;;;;;5117854;28;20452;-71
2022/09/18 05:34:31;;;;;;;5.90;2.13;;;10.50;99.90;;;;;;5117727;28;20778;-72
2022/09/18 05:36:59;;;;;;;11.33;2.40;;;10.50;99.90;;;;;;5117802;28;20854;-73
2022/09/18 05:39:25;;;;;;;15.80;2.60;;;10.50;99.90;;;;;;5118008;28;20915;-71
2022/09/18 05:41:52;;;;;;;8.83;2.10;;;10.50;99.90;;;;;;5118862;28;20462;-72
2022/09/18 05:44:20;;;;;;;7.73;2.70;;;10.50;99.90;;;;;;5118996;28;20559;-73
2022/09/18 05:46:47;;;;;;;7.10;2.80;;;10.50;99.90;;;;;;5118035;28;20852;-73
2022/09/18 05:49:14;;;;;;;4.40;1.90;;;10.50;99.90;;;;;;5118040;28;20559;-74
2022/09/18 05:51:43;;;;;;;8.03;2.27;;;10.40;99.90;;;;;;5117852;28;20961;-74
2022/09/18 05:54:10;;;;;;;8.97;2.00;;;10.40;99.90;;;;;;5118078;28;20457;-73
2022/09/18 05:56:37;;;;;;;15.40;2.67;;;10.40;99.90;;;;;;5118273;28;20463;-73
2022/09/18 05:59:04;;;;;;;7.30;2.13;;;10.30;99.90;;;;;;5118361;28;20535;-73
2022/09/18 06:01:31;;;;;;;9.63;2.20;;;10.30;99.90;;;;;;5118416;28;20499;-73
2022/09/18 06:03:58;;;;;;;6.43;2.03;;;10.30;99.90;;;;;;5117993;28;20513;-74
2022/09/18 06:06:27;;;;;;;6.17;2.33;;;10.20;99.90;;;;;;5116449;28;20544;-74
2022/09/18 06:08:56;;;;;;;6.70;2.30;;;10.20;99.90;;;;;;5116806;28;20464;-73
2022/09/18 06:11:23;;;;;;;9.57;2.57;;;10.20;99.90;;;;;;5117189;28;20544;-73
2022/09/18 06:13:51;;;;;;;5.33;2.53;;;10.10;99.90;;;;;;5116575;28;20467;-73
2022/09/18 06:16:18;;;;;;;7.87;1.90;;;10.10;99.90;;;;;;5117291;28;20460;-73
2022/09/18 06:18:45;;;;;;;11.40;2.13;;;10.10;99.90;;;;;;5107621;28;20465;-72
2022/09/18 06:21:13;;;;;;;8.40;2.00;;;10.10;99.90;;;;;;5095425;28;20958;-73
2022/09/18 06:23:40;;;;;;;5.30;2.13;;;10.10;99.90;;;;;;5096134;28;20512;-72
2022/09/18 06:26:10;;;;;;;7.40;1.70;;;10.10;99.90;;;;;;5096176;28;20503;-72
2022/09/18 06:28:37;;;;;;;9.70;2.77;;;10.00;99.90;;;;;;5095642;28;20464;-73
2022/09/18 06:31:05;;;;;;;8.10;2.10;;;10.10;99.90;;;;;;5096105;28;20854;-72
2022/09/18 06:33:34;;;;;;;7.93;2.30;;;10.10;99.90;;;;;;5095684;28;20457;-71
2022/09/18 06:36:05;;;;;;;10.57;2.30;;;10.10;99.90;;;;;;5095714;28;20511;-74
2022/09/18 06:38:32;;;;;;;7.90;2.70;;;10.10;99.90;;;;;;5095960;28;20438;-73
2022/09/18 06:40:58;;;;;;;5.93;2.23;;;10.20;99.90;;;;;;5094072;28;20458;-73
2022/09/18 06:43:27;;;;;;;16.33;2.90;;;10.20;99.90;;;;;;5095726;28;20497;-72
2022/09/18 06:45:55;;;;;;;12.17;2.90;;;10.20;99.90;;;;;;5095944;28;20495;-72
2022/09/18 06:48:22;;;;;;;8.73;2.40;;;10.20;99.90;;;;;;5095495;28;20524;-73
2022/09/18 06:50:53;;;;;;;8.57;2.60;;;10.30;99.90;;;;;;5095574;28;20485;-73
2022/09/18 06:53:20;;;;;;;7.20;2.40;;;10.40;99.90;;;;;;5095604;28;20463;-73
2022/09/18 06:55:47;;;;;;;8.10;1.97;;;10.50;99.90;;;;;;5096407;28;20693;-73
2022/09/18 06:58:16;;;;;;;8.37;2.97;;;10.40;99.90;;;;;;5096723;28;20498;-73
2022/09/18 07:00:45;;;;;;;10.47;2.33;;;10.50;99.90;;;;;;5095443;28;20456;-74
2022/09/18 07:03:12;;;;;;;6.30;1.90;;;10.50;99.90;;;;;;5094874;28;20550;-73
2022/09/18 07:05:41;;;;;;;6.00;2.43;;;10.50;99.90;;;;;;5095322;28;20471;-73
2022/09/18 07:08:09;;;;;;;10.40;2.63;;;10.50;99.90;;;;;;5095463;28;20845;-72
2022/09/18 07:10:36;;;;;;;12.27;1.80;;;10.60;99.90;;;;;;5095095;28;20987;-73
2022/09/18 07:13:03;;;;;;;4.83;1.77;;;10.60;99.90;;;;;;5095021;28;20453;-72
2022/09/18 07:15:30;;;;;;;10.63;2.37;;;10.60;99.90;;;;;;5095334;28;20538;-72
2022/09/18 07:18:00;;;;;;;8.23;2.00;;;10.60;99.90;;;;;;5094660;28;20476;-73
2022/09/18 07:20:28;;;;;;;5.87;1.80;;;10.70;99.90;;;;;;5095164;28;20476;-72
2022/09/18 07:22:57;;;;;;;12.13;2.57;;;10.70;99.90;;;;;;5095114;28;20468;-71
2022/09/18 07:25:24;;;;;;;9.73;2.60;;;10.80;99.90;;;;;;5095157;28;20560;-71
2022/09/18 07:27:51;;;;;;;8.03;2.10;;;10.80;99.90;;;;;;5094971;28;20495;-73
2022/09/18 07:30:18;;;;;;;7.97;2.23;;;10.90;99.90;;;;;;5094826;28;20572;-72
2022/09/18 07:32:45;;;;;;;8.10;1.70;;;11.00;99.90;;;;;;5094745;28;20458;-72
2022/09/18 07:35:13;;;;;;;10.20;1.53;;;11.10;99.90;;;;;;5094535;28;20989;-72
2022/09/18 07:37:40;;;;;;;12.77;1.70;;;11.10;99.90;;;;;;5094544;28;20545;-73
2022/09/18 07:40:09;;;;;;;6.77;1.77;;;11.10;99.90;;;;;;5094745;28;20460;-71
2022/09/18 07:42:36;;;;;;;9.60;2.80;;;11.20;99.90;;;;;;5094614;28;20918;-73
2022/09/18 07:45:03;;;;;;;4.70;1.70;;;11.20;99.90;;;;;;5094586;28;20936;-72
2022/09/18 07:47:30;;;;;;;7.80;2.40;;;11.20;99.90;;;;;;5095199;28;20837;-73
2022/09/18 07:49:57;;;;;;;8.97;1.70;;;11.30;99.90;;;;;;5094356;28;20488;-73
2022/09/18 07:52:25;;;;;;;8.70;1.40;;;11.40;99.90;;;;;;5094660;28;20496;-74
2022/09/18 07:54:52;;;;;;;9.63;2.13;;;11.40;99.90;;;;;;5094872;28;20463;-74
2022/09/18 07:57:19;;;;;;;6.93;2.03;;;11.40;99.90;;;;;;5094362;28;20467;-70
2022/09/18 07:59:46;;;;;;;4.37;1.60;;;11.40;99.90;;;;;;5094276;28;20457;-72
2022/09/18 08:02:13;;;;;;;6.20;1.60;;;11.40;99.90;;;;;;5094120;28;20488;-72
2022/09/18 08:04:39;;;;;;;3.47;1.10;;;11.40;99.90;;;;;;5094227;28;20446;-72
2022/09/18 08:07:06;;;;;;;7.80;1.73;;;11.50;99.90;;;;;;5094403;28;20475;-73
2022/09/18 08:09:35;;;;;;;5.83;1.70;;;11.50;99.90;;;;;;5094476;28;20500;-72
2022/09/18 08:12:02;;;;;;;6.50;1.90;;;11.50;99.90;;;;;;5094521;28;20464;-73
2022/09/18 08:14:29;;;;;;;3.00;1.27;;;11.60;99.90;;;;;;5094772;28;20457;-72
2022/09/18 08:16:57;;;;;;;4.00;1.43;;;11.70;99.90;;;;;;5094349;28;20464;-73
2022/09/18 08:19:23;;;;;;;9.60;2.30;;;11.70;99.90;;;;;;5094979;28;20468;-73
2022/09/18 08:21:50;;;;;;;4.30;1.50;;;11.80;99.90;;;;;;5094583;28;20457;-73
2022/09/18 08:24:17;;;;;;;6.43;1.93;;;11.80;99.90;;;;;;5094135;28;20522;-73
2022/09/18 08:26:46;;;;;;;7.73;1.80;;;11.90;99.90;;;;;;5094658;28;20465;-74
2022/09/18 08:29:17;;;;;;;6.87;1.80;;;11.90;99.90;;;;;;5096660;28;20489;-73
2022/09/18 08:31:45;;;;;;;6.60;1.40;;;12.00;99.90;;;;;;5098194;28;20465;-73
2022/09/18 08:34:12;;;;;;;6.47;1.47;;;12.10;99.90;;;;;;5098106;28;20471;-73
2022/09/18 08:36:39;;;;;;;7.23;1.47;;;12.20;99.90;;;;;;5098547;28;20465;-74
2022/09/18 08:39:06;;;;;;;8.50;2.23;;;12.20;99.90;;;;;;5098333;28;20456;-74
2022/09/18 08:41:51;;;;;;;3.53;1.37;;;12.30;99.90;;;;;;5098133;28;20500;-73
2022/09/18 08:44:23;;;;;;;9.43;1.50;;;12.30;99.90;;;;;;5097882;28;20442;-74
2022/09/18 08:46:55;;;;;;;7.43;1.80;;;12.40;99.90;;;;;;5097854;28;20437;-74
2022/09/18 08:49:27;;;;;;;5.50;2.50;;;12.40;99.90;;;;;;5098029;28;20540;-72
2022/09/18 08:52:01;;;;;;;4.33;1.67;;;12.50;99.90;;;;;;5098166;28;20780;-73
2022/09/18 08:54:47;;;;;;;9.13;1.93;;;12.50;99.90;;;;;;5098192;28;20440;-73
2022/09/18 08:57:24;;;;;;;5.57;1.63;;;12.50;99.90;;;;;;5097505;28;20904;-73
2022/09/18 08:59:54;;;;;;;4.37;1.33;;;12.60;99.90;;;;;;5097514;28;20456;-72
2022/09/18 09:02:36;;;;;;;5.73;2.00;;;12.70;99.90;;;;;;5097163;28;20955;-72
2022/09/18 09:05:07;;;;;;;6.53;1.50;;;12.70;99.90;;;;;;5097521;28;20513;-71
2022/09/18 09:08:00;;;;;;;6.20;1.67;;;12.70;99.90;;;;;;5097780;28;20981;-72
2022/09/18 09:10:42;;;;;;;12.13;1.93;;;12.80;99.90;;;;;;5037274;28;20960;-74
2022/09/18 09:13:36;;;;;;;3.10;1.27;;;12.80;99.90;;;;;;5035515;28;20460;-73
2022/09/18 09:16:08;;;;;;;7.77;1.50;;;12.90;99.90;;;;;;4976953;28;20458;-73
2022/09/18 09:18:44;;;;;;;6.63;1.97;;;12.90;99.90;;;;;;4976557;28;20583;-73
2022/09/18 09:21:20;;;;;;;8.33;1.37;;;12.90;99.90;;;;;;4976814;28;20946;-74
2022/09/18 09:24:02;;;;;;;5.27;1.43;;;13.00;99.90;;;;;;4976735;28;20443;-73
2022/09/18 09:26:31;;;;;;;9.90;2.27;;;13.00;99.90;;;;;;4976934;28;20455;-73
2022/09/18 09:29:03;;;;;;;8.87;1.60;;;13.20;99.90;;;;;;4977100;28;20485;-74
2022/09/18 09:31:36;;;;;;;9.97;1.90;;;13.30;99.90;;;;;;4976876;28;20481;-73
2022/09/18 09:34:09;;;;;;;5.70;1.10;;;13.30;99.90;;;;;;4977267;28;20546;-72
2022/09/18 09:36:37;;;;;;;5.10;1.60;;;13.30;99.90;;;;;;4976797;28;20839;-73
2022/09/18 09:39:12;;;;;;;4.93;1.67;;;13.50;99.90;;;;;;4976255;28;20862;-71
2022/09/18 09:41:44;;;;;;;4.83;1.33;;;13.60;99.90;;;;;;4976483;28;20476;-72
2022/09/18 09:44:24;;;;;;;6.00;1.13;;;13.60;99.90;;;;;;4976508;28;20471;-75
2022/09/18 09:47:05;;;;;;;4.33;1.40;;;13.60;99.90;;;;;;4986451;28;20484;-74
2022/09/18 09:49:40;;;;;;;5.63;1.50;;;13.60;99.90;;;;;;5014977;28;20524;-72
2022/09/18 09:52:12;;;;;;;6.47;1.47;;;13.60;99.90;;;;;;5015262;28;20465;-72
2022/09/18 09:54:39;;;;;;;4.23;1.10;;;13.60;99.90;;;;;;5096946;28;20441;-73
2022/09/18 09:57:19;;;;;;;4.53;1.17;;;13.70;99.90;;;;;;5097722;28;20461;-73
2022/09/18 09:59:55;;;;;;;6.40;1.10;;;13.80;99.90;;;;;;5097383;28;20820;-75
2022/09/18 10:02:37;;;;;;;6.97;1.30;;;13.80;99.90;;;;;;5096731;28;20548;-72
2022/09/18 10:05:21;;;;;;;7.30;1.40;;;13.50;99.90;;;;;;5096497;28;20438;-71
2022/09/18 10:07:52;;;;;;;3.50;1.20;;;13.40;99.90;;;;;;5097110;28;20527;-73
2022/09/18 10:10:27;;;;;;;4.30;1.20;;;13.40;99.90;;;;;;5096741;28;20822;-72
2022/09/18 10:12:57;;;;;;;3.60;1.27;;;13.30;99.90;;;;;;5096538;28;20460;-74
2022/09/18 10:15:33;;;;;;;4.80;1.20;;;13.30;99.90;;;;;;5096402;28;20563;-73
2022/09/18 10:18:03;;;;;;;2.30;1.23;;;13.30;99.90;;;;;;5096612;28;20461;-73
2022/09/18 10:20:32;;;;;;;6.50;1.43;;;13.30;99.90;;;;;;5096022;28;20463;-72
2022/09/18 10:23:06;;;;;;;4.53;1.30;;;13.40;99.90;;;;;;5096248;28;20488;-73
2022/09/18 10:25:39;;;;;;;3.27;1.10;;;13.60;99.90;;;;;;5095844;28;20473;-72
2022/09/18 10:28:05;;;;;;;6.50;1.30;;;13.70;99.90;;;;;;5096196;28;20441;-71
2022/09/18 10:30:34;;;;;;;3.90;1.20;;;13.80;99.90;;;;;;5095693;28;20452;-72
2022/09/18 10:33:01;;;;;;;4.03;1.30;;;13.80;99.90;;;;;;5095001;28;20453;-73
2022/09/18 10:35:44;;;;;;;3.87;1.43;;;13.70;99.90;;;;;;5095939;28;20463;-72
2022/09/18 10:38:31;;;;;;;4.43;1.10;;;13.70;99.90;;;;;;5096019;28;20548;-72
2022/09/18 10:41:11;;;;;;;2.93;1.43;;;13.60;99.90;;;;;;5095336;28;20955;-72
2022/09/18 10:43:53;;;;;;;2.40;1.13;;;13.60;99.90;;;;;;5096319;28;20433;-73
2022/09/18 10:46:28;;;;;;;3.00;1.00;;;13.70;99.90;;;;;;5095470;28;20444;-72
2022/09/18 10:48:57;;;;;;;3.50;1.07;;;13.70;99.90;;;;;;5096115;28;20437;-73
2022/09/18 10:51:27;;;;;;;10.73;1.50;;;13.90;99.90;;;;;;5094910;28;20858;-72
2022/09/18 10:54:03;;;;;;;2.60;1.03;;;13.90;99.90;;;;;;5095450;28;20463;-73
2022/09/18 10:56:30;;;;;;;7.33;1.20;;;14.10;99.90;;;;;;5095408;28;20505;-73
2022/09/18 10:59:12;;;;;;;4.03;1.17;;;14.20;99.90;;;;;;5095656;28;20457;-72
2022/09/18 11:01:41;;;;;;;5.80;1.63;;;14.30;99.90;;;;;;5095726;28;20832;-72
2022/09/18 11:04:16;;;;;;;4.90;1.40;;;14.30;99.90;;;;;;5097105;28;20887;-73
2022/09/18 11:06:45;;;;;;;3.83;1.13;;;14.30;99.90;;;;;;5095085;28;20437;-73
2022/09/18 11:09:18;;;;;;;4.40;1.20;;;14.40;99.90;;;;;;5095589;28;20449;-73
2022/09/18 11:11:49;;;;;;;6.33;1.20;;;14.70;99.90;;;;;;5095167;28;20847;-73
2022/09/18 11:14:19;;;;;;;6.00;1.33;;;14.90;99.90;;;;;;5095032;28;20548;-73
2022/09/18 11:16:50;;;;;;;4.50;1.00;;;15.10;99.90;;;;;;5094880;28;20528;-72
2022/09/18 11:19:24;;;;;;;4.13;0.97;;;15.10;99.90;;;;;;5094863;28;20524;-73
2022/09/18 11:21:54;;;;;;;5.13;1.00;;;14.80;99.90;;;;;;5095269;28;20492;-72
2022/09/18 11:24:24;;;;;;;6.37;1.30;;;14.60;99.90;;;;;;5094975;28;20941;-73
2022/09/18 11:26:52;;;;;;;3.70;1.47;;;14.40;99.90;;;;;;5094484;28;20500;-73
2022/09/18 11:29:25;;;;;;;6.07;1.50;;;14.20;99.90;;;;;;5095165;28;20549;-73
2022/09/18 11:31:58;;;;;;;1.80;0.80;;;13.90;99.90;;;;;;5094728;28;20466;-72
2022/09/18 11:34:27;;;;;;;2.57;1.30;;;13.50;99.90;;;;;;5094836;28;20524;-73
2022/09/18 11:36:58;;;;;;;3.77;0.90;;;13.30;99.90;;;;;;5095397;28;20936;-73
2022/09/18 11:39:33;;;;;;;2.70;1.00;;;13.20;99.90;;;;;;5096110;28;20930;-73
2022/09/18 11:42:00;;;;;;;2.53;0.90;;;13.20;99.90;;;;;;5096307;28;20433;-72
2022/09/18 11:44:30;;;;;;;2.80;0.93;;;13.30;99.90;;;;;;5096462;28;20839;-73
2022/09/18 11:47:30;;;;;;;1.63;1.00;;;13.70;99.90;;;;;;5095212;28;20464;-71
2022/09/18 11:50:08;;;;;;;2.33;0.90;;;14.40;99.90;;;;;;5095394;28;20520;-72
2022/09/18 11:52:40;;;;;;;3.63;0.87;;;15.40;99.90;;;;;;5094571;28;20461;-72
2022/09/18 11:55:17;;;;;;;4.63;0.80;;;16.20;99.90;;;;;;5095870;28;20540;-73
2022/09/18 11:57:47;;;;;;;6.33;1.20;;;16.80;99.90;;;;;;5094981;28;20536;-73
2022/09/18 12:00:18;;;;;;;5.50;1.23;;;17.40;99.90;;;;;;5094134;28;20460;-73
2022/09/18 12:02:53;;;;;;;6.00;1.27;;;17.70;99.90;;;;;;5094223;28;21076;-73
2022/09/18 12:05:25;;;;;;;4.90;1.30;;;18.00;99.90;;;;;;5098898;28;20798;-73
2022/09/18 12:08:01;;;;;;;4.73;1.87;;;18.20;99.90;;;;;;5098561;28;20437;-73
2022/09/18 12:10:37;;;;;;;3.60;1.30;;;18.90;99.90;;;;;;5098764;28;20469;-72
2022/09/18 12:13:20;;;;;;;3.80;1.13;;;19.20;99.90;;;;;;5098533;28;20953;-72
2022/09/18 12:15:54;;;;;;;5.67;0.97;;;17.60;99.90;;;;;;5098822;28;20452;-72
2022/09/18 12:18:27;;;;;;;1.30;0.70;;;15.70;99.90;;;;;;5098823;28;20528;-73
2022/09/18 12:21:00;;;;;;;2.40;0.80;;;14.40;99.90;;;;;;5098243;28;20441;-73
2022/09/18 12:23:27;;;;;;;2.80;0.90;;;13.50;99.90;;;;;;5098785;28;20543;-73
2022/09/18 12:26:11;;;;;;;3.47;0.83;;;13.00;99.90;;;;;;5098706;28;20453;-72
2022/09/18 12:28:46;;;;;;;2.30;0.90;;;12.60;99.90;;;;;;5098503;28;20771;-72
2022/09/18 12:31:18;;;;;;;2.60;0.80;;;12.40;99.90;;;;;;5098455;28;20465;-73
2022/09/18 12:33:56;;;;;;;7.03;0.80;;;12.50;99.90;;;;;;5098230;28;20891;-72
2022/09/18 12:36:44;;;;;;;2.20;1.00;;;13.30;99.90;;;;;;5098079;28;20441;-72
2022/09/18 12:39:26;;;;;;;1.40;0.77;;;14.70;99.90;;;;;;5098587;28;20958;-72
2022/09/18 12:42:10;;;;;;;2.47;0.70;;;16.00;99.90;;;;;;5098047;28;20437;-73
2022/09/18 12:44:50;;;;;;;1.77;0.80;;;17.00;99.90;;;;;;5098300;28;20786;-73
2022/09/18 12:47:31;;;;;;;1.70;0.73;;;17.80;99.90;;;;;;5098266;28;20441;-72
2022/09/18 12:50:17;;;;;;;3.60;0.93;;;18.70;99.90;;;;;;5097830;28;20910;-73
2022/09/18 12:52:53;;;;;;;3.00;1.00;;;19.00;99.90;;;;;;5097610;28;20504;-73
2022/09/18 12:55:38;;;;;;;3.17;1.20;;;19.20;99.90;;;;;;5098576;28;20441;-73
2022/09/18 12:58:17;;;;;;;3.23;1.03;;;19.90;99.90;;;;;;5098137;28;20461;-73
2022/09/18 13:00:47;;;;;;;1.10;0.60;;;20.20;99.90;;;;;;5097848;28;20770;-73
2022/09/18 13:03:18;;;;;;;3.23;1.13;;;20.30;99.90;;;;;;5097333;28;20481;-73
2022/09/18 13:05:48;;;;;;;2.43;1.07;;;20.40;99.90;;;;;;5097719;28;20538;-72
2022/09/18 13:08:20;;;;;;;3.37;0.90;;;20.70;99.60;;;;;;5097626;28;20460;-73
2022/09/18 13:10:49;;;;;;;2.30;1.10;;;20.60;98.00;;;;;;5097833;28;20442;-73
2022/09/18 13:13:22;;;;;;;5.10;1.10;;;20.20;98.80;;;;;;5097520;28;20495;-73
2022/09/18 13:15:53;;;;;;;2.47;0.97;;;20.10;99.00;;;;;;5096894;28;20441;-73
2022/09/18 13:18:29;;;;;;;1.90;0.90;;;20.00;99.90;;;;;;5097592;28;20442;-73
2022/09/18 13:20:59;;;;;;;4.60;1.13;;;19.40;99.90;;;;;;5098063;28;20441;-73
2022/09/18 13:23:29;;;;;;;3.07;1.10;;;18.60;98.80;;;;;;5097440;28;20491;-73